createdAt,value
2018-01-12T00:01:10.326Z,4.30
2018-01-12T00:03:39.850Z,4.20
2018-01-12T00:06:09.802Z,4.30
2018-01-12T00:08:39.279Z,4.20
2018-01-12T00:11:09.195Z,4.20
2018-01-12T00:13:38.947Z,4.20
2018-01-12T00:16:09.350Z,4.20
2018-01-12T00:18:38.875Z,4.20
2018-01-12T00:21:08.507Z,4.20
2018-01-12T00:23:38.121Z,4.20
2018-01-12T00:26:07.692Z,4.20
2018-01-12T00:28:38.105Z,4.20
2018-01-12T00:31:08.528Z,4.20
2018-01-12T00:33:38.203Z,4.20
2018-01-12T00:36:07.703Z,4.20
2018-01-12T00:38:37.406Z,4.20
2018-01-12T00:41:07.251Z,4.20
2018-01-12T00:43:36.837Z,4.20
2018-01-12T00:46:06.561Z,4.20
2018-01-12T00:48:36.488Z,4.10
2018-01-12T00:51:06.310Z,4.10
2018-01-12T00:53:36.002Z,4.10
2018-01-12T00:56:05.476Z,4.10
2018-01-12T00:58:35.056Z,4.10
2018-01-12T01:01:04.529Z,4.10
2018-01-12T01:03:34.269Z,4.10
2018-01-12T01:06:03.985Z,4.10
2018-01-12T01:08:33.662Z,4.10
2018-01-12T01:11:03.155Z,4.10
2018-01-12T01:13:32.827Z,4.10
2018-01-12T01:16:02.459Z,4.10
2018-01-12T01:18:32.048Z,4.10
2018-01-12T01:21:01.623Z,4.10
2018-01-12T01:23:31.533Z,4.10
2018-01-12T01:26:00.996Z,4.10
2018-01-12T01:28:30.511Z,4.10
2018-01-12T01:31:00.530Z,4.10
2018-01-12T01:33:30.252Z,4.10
2018-01-12T01:35:59.958Z,4.10
2018-01-12T01:38:29.527Z,4.10
2018-01-12T01:40:58.962Z,4.10
2018-01-12T01:43:28.403Z,4.10
2018-01-12T01:45:58.062Z,4.00
2018-01-12T01:48:36.413Z,4.00
2018-01-12T01:51:06.210Z,4.00
2018-01-12T01:53:35.702Z,4.10
2018-01-12T01:56:05.351Z,4.10
2018-01-12T01:58:34.799Z,4.00
2018-01-12T02:01:04.487Z,4.00
2018-01-12T02:03:33.951Z,4.00
2018-01-12T02:06:04.174Z,4.00
2018-01-12T02:08:33.755Z,4.00
2018-01-12T02:11:03.371Z,4.00
2018-01-12T02:13:32.806Z,4.00
2018-01-12T02:16:02.315Z,4.00
2018-01-12T02:18:32.101Z,4.00
2018-01-12T02:21:01.776Z,4.00
2018-01-12T02:23:31.477Z,4.00
2018-01-12T02:26:01.267Z,4.00
2018-01-12T02:28:30.906Z,4.00
2018-01-12T02:31:00.345Z,4.00
2018-01-12T02:33:29.952Z,4.00
2018-01-12T02:35:59.523Z,4.00
2018-01-12T02:38:29.227Z,4.00
2018-01-12T02:40:59.058Z,4.00
2018-01-12T02:43:28.502Z,4.00
2018-01-12T02:45:58.067Z,4.00
2018-01-12T02:48:27.479Z,4.00
2018-01-12T02:50:56.929Z,4.00
2018-01-12T02:53:26.456Z,4.00
2018-01-12T02:55:56.115Z,4.00
2018-01-12T02:58:25.603Z,3.90
2018-01-12T03:00:55.091Z,3.90
2018-01-12T03:03:24.776Z,3.90
2018-01-12T03:05:54.221Z,3.90
2018-01-12T03:08:23.678Z,3.90
2018-01-12T03:10:53.233Z,3.90
2018-01-12T03:13:23.002Z,3.90
2018-01-12T03:15:52.718Z,3.90
2018-01-12T03:18:22.199Z,3.90
2018-01-12T03:20:51.646Z,3.90
2018-01-12T03:23:21.239Z,3.90
2018-01-12T03:25:50.944Z,3.90
2018-01-12T03:28:20.422Z,3.90
2018-01-12T03:30:49.891Z,3.90
2018-01-12T03:33:19.617Z,3.90
2018-01-12T03:35:49.846Z,3.90
2018-01-12T03:38:19.301Z,3.90
2018-01-12T03:40:48.948Z,3.90
2018-01-12T03:43:19.203Z,3.90
2018-01-12T03:45:49.066Z,3.90
2018-01-12T03:48:18.515Z,3.90
2018-01-12T03:50:47.969Z,3.90
2018-01-12T03:53:17.742Z,3.90
2018-01-12T03:55:47.230Z,3.90
2018-01-12T03:58:16.864Z,3.90
2018-01-12T04:00:46.574Z,3.80
2018-01-12T04:03:16.031Z,3.90
2018-01-12T04:05:45.494Z,3.80
2018-01-12T04:08:15.158Z,3.80
2018-01-12T04:10:44.598Z,3.80
2018-01-12T04:13:14.155Z,3.80
2018-01-12T04:15:43.611Z,3.80
2018-01-12T04:18:13.154Z,3.80
2018-01-12T04:20:42.915Z,3.80
2018-01-12T04:23:12.586Z,3.80
2018-01-12T04:25:42.110Z,3.80
2018-01-12T04:28:11.524Z,3.80
2018-01-12T04:30:41.160Z,3.80
2018-01-12T04:33:10.614Z,3.80
2018-01-12T04:35:40.065Z,3.80
2018-01-12T04:38:09.495Z,3.80
2018-01-12T04:40:38.910Z,3.80
2018-01-12T04:43:09.251Z,3.80
2018-01-12T04:45:38.742Z,3.80
2018-01-12T04:48:08.947Z,3.80
2018-01-12T04:50:38.559Z,3.80
2018-01-12T04:53:09.176Z,3.80
2018-01-12T04:55:38.653Z,3.70
2018-01-12T04:58:08.705Z,3.80
2018-01-12T05:00:38.135Z,3.70
2018-01-12T05:03:07.588Z,3.80
2018-01-12T05:05:37.136Z,3.70
2018-01-12T05:08:06.580Z,3.70
2018-01-12T05:10:36.071Z,3.70
2018-01-12T05:13:05.543Z,3.70
2018-01-12T05:15:35.882Z,3.70
2018-01-12T05:18:05.425Z,3.70
2018-01-12T05:20:34.887Z,3.70
2018-01-12T05:23:04.518Z,3.70
2018-01-12T05:25:34.106Z,3.70
2018-01-12T05:28:03.613Z,3.70
2018-01-12T05:30:33.279Z,3.70
2018-01-12T05:33:02.878Z,3.70
2018-01-12T05:35:32.354Z,3.70
2018-01-12T05:38:02.547Z,3.70
2018-01-12T05:40:32.034Z,3.70
2018-01-12T05:43:01.703Z,3.70
2018-01-12T05:45:31.206Z,3.70
2018-01-12T05:48:00.812Z,3.70
2018-01-12T05:50:30.366Z,3.70
2018-01-12T05:53:00.661Z,3.70
2018-01-12T05:55:30.530Z,3.70
2018-01-12T05:58:00.266Z,3.70
2018-01-12T06:00:29.855Z,3.70
2018-01-12T06:04:11.169Z,3.70
2018-01-12T06:06:40.731Z,3.70
2018-01-12T06:09:10.368Z,3.70
2018-01-12T06:11:39.909Z,3.60
2018-01-12T06:14:09.575Z,3.60
2018-01-12T06:16:39.069Z,3.60
2018-01-12T06:19:08.895Z,3.60
2018-01-12T06:21:38.529Z,3.60
2018-01-12T06:24:07.982Z,3.60
2018-01-12T06:26:37.731Z,3.60
2018-01-12T06:29:07.186Z,3.60
2018-01-12T06:31:36.768Z,3.60
2018-01-12T06:34:06.455Z,3.60
2018-01-12T06:36:35.956Z,3.60
2018-01-12T06:39:05.715Z,3.60
2018-01-12T06:41:35.946Z,3.60
2018-01-12T06:44:05.733Z,3.60
2018-01-12T06:46:35.413Z,3.60
2018-01-12T06:49:04.909Z,3.60
2018-01-12T06:51:34.535Z,3.60
2018-01-12T06:54:04.058Z,3.50
2018-01-12T06:56:33.495Z,3.60
2018-01-12T06:59:03.002Z,3.60
2018-01-12T07:01:32.535Z,3.60
2018-01-12T07:04:02.060Z,3.50
2018-01-12T07:06:32.386Z,3.50
2018-01-12T07:09:01.933Z,3.50
2018-01-12T07:11:31.607Z,3.50
2018-01-12T07:14:01.320Z,3.50
2018-01-12T07:16:31.234Z,3.50
2018-01-12T07:19:01.552Z,3.50
2018-01-12T07:21:43.701Z,3.50
2018-01-12T07:24:13.207Z,3.50
2018-01-12T07:26:42.698Z,3.50
2018-01-12T07:29:12.192Z,3.50
2018-01-12T07:31:42.012Z,3.50
2018-01-12T07:34:11.610Z,3.50
2018-01-12T07:36:41.838Z,3.50
2018-01-12T07:39:11.370Z,3.50
2018-01-12T07:41:41.048Z,3.50
2018-01-12T07:44:10.578Z,3.50
2018-01-12T07:46:40.023Z,3.50
2018-01-12T07:49:09.524Z,3.50
2018-01-12T07:51:39.149Z,3.50
2018-01-12T07:54:08.698Z,3.50
2018-01-12T07:56:38.258Z,3.50
2018-01-12T07:59:08.497Z,3.50
2018-01-12T08:01:42.954Z,3.50
2018-01-12T08:04:12.827Z,3.50
2018-01-12T08:06:43.078Z,3.50
2018-01-12T08:09:12.712Z,3.50
2018-01-12T08:11:42.330Z,3.50
2018-01-12T08:14:11.826Z,3.50
2018-01-12T08:16:41.390Z,3.50
2018-01-12T08:19:11.499Z,3.50
2018-01-12T08:21:41.458Z,3.50
2018-01-12T08:24:11.002Z,3.50
2018-01-12T08:26:42.221Z,3.50
2018-01-12T08:29:11.768Z,3.40
2018-01-12T08:31:42.099Z,3.50
2018-01-12T08:34:12.476Z,3.50
2018-01-12T08:36:42.010Z,3.50
2018-01-12T08:39:12.544Z,3.40
2018-01-12T08:41:42.030Z,3.40
2018-01-12T08:44:11.962Z,3.40
2018-01-12T08:46:41.470Z,3.40
2018-01-12T08:49:11.228Z,3.40
2018-01-12T08:51:40.721Z,3.40
2018-01-12T08:54:10.268Z,3.50
2018-01-12T08:56:39.740Z,3.40
2018-01-12T08:59:09.417Z,3.40
2018-01-12T09:01:39.052Z,3.40
2018-01-12T09:04:08.848Z,3.40
2018-01-12T09:06:38.716Z,3.50
2018-01-12T09:09:08.307Z,3.40
2018-01-12T09:11:38.852Z,3.40
2018-01-12T09:14:17.612Z,3.40
2018-01-12T09:16:51.808Z,3.40
2018-01-12T09:19:32.609Z,3.40
2018-01-12T09:22:09.572Z,3.40
2018-01-12T09:25:15.073Z,3.40
2018-01-12T09:27:46.302Z,3.40
2018-01-12T09:30:16.041Z,3.40
2018-01-12T09:32:45.777Z,3.40
2018-01-12T09:35:16.084Z,3.40
2018-01-12T09:37:46.080Z,3.40
2018-01-12T09:40:20.361Z,3.40
2018-01-12T09:42:50.172Z,3.40
2018-01-12T09:45:20.052Z,3.40
2018-01-12T09:47:58.375Z,3.40
2018-01-12T09:50:29.396Z,3.40
2018-01-12T09:52:59.309Z,3.40
2018-01-12T09:55:29.090Z,3.40
2018-01-12T09:57:58.862Z,3.40
2018-01-12T10:00:28.503Z,3.40
2018-01-12T10:02:58.363Z,3.40
2018-01-12T10:05:27.866Z,3.40
2018-01-12T10:08:05.370Z,3.40
2018-01-12T10:10:35.993Z,3.40
2018-01-12T10:13:06.040Z,3.30
2018-01-12T10:15:36.014Z,3.30
2018-01-12T10:18:12.973Z,3.30
2018-01-12T10:20:42.546Z,3.30
2018-01-12T10:23:12.458Z,3.30
2018-01-12T10:25:42.178Z,3.30
2018-01-12T10:28:11.722Z,3.30
2018-01-12T10:30:56.913Z,3.30
2018-01-12T10:33:31.983Z,3.40
2018-01-12T10:36:03.272Z,3.30
2018-01-12T10:38:35.764Z,3.30
2018-01-12T10:41:14.235Z,3.30
2018-01-12T10:43:43.805Z,3.30
2018-01-12T10:46:22.571Z,3.30
2018-01-12T10:48:57.145Z,3.30
2018-01-12T10:51:35.121Z,3.30
2018-01-12T10:54:04.753Z,3.30
2018-01-12T10:56:44.165Z,3.30
2018-01-12T10:59:13.650Z,3.30
2018-01-12T11:01:43.082Z,3.30
2018-01-12T11:04:12.558Z,3.30
2018-01-12T11:06:42.336Z,3.30
2018-01-12T11:09:11.946Z,3.30
2018-01-12T11:11:41.478Z,3.30
2018-01-12T11:14:11.235Z,3.30
2018-01-12T11:16:40.782Z,3.30
2018-01-12T11:19:10.274Z,3.30
2018-01-12T11:21:40.510Z,3.30
2018-01-12T11:24:09.970Z,3.30
2018-01-12T11:26:40.614Z,3.30
2018-01-12T11:29:10.234Z,3.30
2018-01-12T11:31:40.083Z,3.30
2018-01-12T11:34:09.542Z,3.30
2018-01-12T11:36:39.312Z,3.30
2018-01-12T11:39:08.875Z,3.30
2018-01-12T11:41:38.394Z,3.30
2018-01-12T11:44:08.138Z,3.30
2018-01-12T11:46:38.533Z,3.30
2018-01-12T11:49:08.342Z,3.30
2018-01-12T11:51:37.917Z,3.30
2018-01-12T11:54:07.375Z,3.30
2018-01-12T11:56:36.988Z,3.30
2018-01-12T11:59:06.975Z,3.30
2018-01-12T12:01:36.486Z,3.30
2018-01-12T12:04:06.591Z,3.30
2018-01-12T12:06:36.102Z,3.30
2018-01-12T12:09:05.990Z,3.30
2018-01-12T12:11:35.475Z,3.30
2018-01-12T12:14:05.041Z,3.30
2018-01-12T12:16:34.716Z,3.30
2018-01-12T12:19:04.318Z,3.20
2018-01-12T12:21:34.206Z,3.30
2018-01-12T12:24:03.882Z,3.30
2018-01-12T12:26:33.410Z,3.30
2018-01-12T12:29:03.685Z,3.20
2018-01-12T12:31:33.332Z,3.20
2018-01-12T12:34:02.954Z,3.20
2018-01-12T12:36:32.637Z,3.30
2018-01-12T12:39:02.109Z,3.30
2018-01-12T12:41:32.098Z,3.20
2018-01-12T12:44:01.806Z,3.20
2018-01-12T12:46:31.286Z,3.20
2018-01-12T12:49:00.831Z,3.20
2018-01-12T12:51:30.302Z,3.20
2018-01-12T12:54:00.108Z,3.20
2018-01-12T12:56:31.011Z,3.30
2018-01-12T12:59:00.800Z,3.20
2018-01-12T13:01:30.549Z,3.20
2018-01-12T13:04:00.154Z,3.20
2018-01-12T13:06:30.628Z,3.20
2018-01-12T13:09:02.648Z,3.20
2018-01-12T13:11:32.382Z,3.20
2018-01-12T13:14:01.961Z,3.20
2018-01-12T13:16:31.567Z,3.20
2018-01-12T13:19:01.306Z,3.20
2018-01-12T13:21:30.847Z,3.20
2018-01-12T13:24:00.599Z,3.20
2018-01-12T13:26:30.295Z,3.20
2018-01-12T13:29:00.054Z,3.20
2018-01-12T13:31:29.627Z,3.20
2018-01-12T13:33:59.361Z,3.20
2018-01-12T13:36:29.237Z,3.20
2018-01-12T13:39:00.050Z,3.20
2018-01-12T13:41:32.561Z,3.20
2018-01-12T13:44:02.413Z,3.20
2018-01-12T13:46:32.390Z,3.20
2018-01-12T13:49:01.895Z,3.20
2018-01-12T13:51:31.546Z,3.20
2018-01-12T13:54:01.166Z,3.20
2018-01-12T13:56:30.666Z,3.20
2018-01-12T13:59:00.964Z,3.20
2018-01-12T14:01:30.545Z,3.20
2018-01-12T14:04:00.276Z,3.20
2018-01-12T14:06:30.088Z,3.20
2018-01-12T14:08:59.710Z,3.20
2018-01-12T14:11:29.327Z,3.20
2018-01-12T14:13:59.047Z,3.20
2018-01-12T14:16:28.579Z,3.20
2018-01-12T14:18:58.264Z,3.20
2018-01-12T14:21:27.974Z,3.20
2018-01-12T14:23:57.872Z,3.20
2018-01-12T14:26:27.844Z,3.10
2018-01-12T14:28:57.359Z,3.10
2018-01-12T14:31:27.173Z,3.10
2018-01-12T14:33:56.899Z,3.10
2018-01-12T14:36:26.510Z,3.10
2018-01-12T14:38:56.216Z,3.10
2018-01-12T14:41:26.084Z,3.10
2018-01-12T14:43:55.578Z,3.10
2018-01-12T14:46:25.559Z,3.10
2018-01-12T14:48:55.412Z,3.10
2018-01-12T14:51:25.298Z,3.10
2018-01-12T14:53:54.892Z,3.10
2018-01-12T14:56:24.697Z,3.10
2018-01-12T14:58:54.436Z,3.10
2018-01-12T15:01:23.996Z,3.10
2018-01-12T15:03:53.814Z,3.10
2018-01-12T15:06:23.886Z,3.10
2018-01-12T15:08:53.661Z,3.10
2018-01-12T15:11:24.100Z,3.10
2018-01-12T15:13:53.837Z,3.10
2018-01-12T15:16:23.813Z,3.10
2018-01-12T15:18:53.348Z,3.10
2018-01-12T15:21:22.940Z,3.10
2018-01-12T15:23:52.791Z,3.10
2018-01-12T15:26:22.521Z,3.10
2018-01-12T15:28:53.553Z,3.10
2018-01-12T15:31:23.238Z,3.10
2018-01-12T15:33:53.002Z,3.10
2018-01-12T15:36:22.560Z,3.10
2018-01-12T15:38:52.506Z,3.00
2018-01-12T15:41:22.407Z,3.00
2018-01-12T15:43:51.949Z,3.00
2018-01-12T15:46:21.884Z,3.00
2018-01-12T15:48:51.785Z,3.00
2018-01-12T15:51:21.658Z,3.00
2018-01-12T15:53:51.649Z,3.00
2018-01-12T15:56:21.864Z,3.00
2018-01-12T15:58:51.561Z,3.00
2018-01-12T16:01:21.258Z,3.00
2018-01-12T16:03:51.984Z,3.00
2018-01-12T16:06:22.651Z,3.10
2018-01-12T16:08:52.245Z,3.00
2018-01-12T16:11:22.389Z,3.00
2018-01-12T16:13:52.115Z,3.00
2018-01-12T16:16:21.854Z,3.00
2018-01-12T16:18:51.840Z,3.00
2018-01-12T16:21:21.303Z,3.00
2018-01-12T16:23:50.849Z,3.00
2018-01-12T16:26:20.314Z,3.00
2018-01-12T16:28:50.232Z,3.00
2018-01-12T16:31:19.786Z,3.00
2018-01-12T16:33:49.548Z,3.00
2018-01-12T16:36:19.074Z,3.00
2018-01-12T16:38:48.815Z,3.00
2018-01-12T16:41:18.420Z,3.00
2018-01-12T16:43:48.208Z,2.90
2018-01-12T16:46:18.042Z,3.00
2018-01-12T16:48:47.812Z,2.90
2018-01-12T16:51:17.514Z,2.90
2018-01-12T16:53:47.040Z,3.00
2018-01-12T16:56:17.077Z,3.00
2018-01-12T16:58:46.824Z,3.00
2018-01-12T17:01:16.586Z,3.00
2018-01-12T17:03:46.472Z,3.00
2018-01-12T17:06:16.221Z,3.00
2018-01-12T17:08:46.266Z,3.00
2018-01-12T17:11:15.877Z,2.90
2018-01-12T17:13:45.421Z,3.00
2018-01-12T17:16:15.124Z,2.90
2018-01-12T17:18:44.945Z,2.90
2018-01-12T17:21:14.735Z,2.90
2018-01-12T17:23:44.369Z,2.90
2018-01-12T17:26:13.963Z,2.90
2018-01-12T17:28:43.728Z,3.00
2018-01-12T17:31:13.524Z,2.90
2018-01-12T17:33:42.979Z,3.00
2018-01-12T17:36:13.534Z,2.90
2018-01-12T17:38:43.112Z,2.90
2018-01-12T17:41:13.009Z,2.90
2018-01-12T17:43:42.769Z,2.90
2018-01-12T17:46:12.578Z,2.90
2018-01-12T17:48:42.133Z,2.90
2018-01-12T17:51:11.808Z,2.90
2018-01-12T17:53:41.704Z,2.90
2018-01-12T17:56:11.396Z,2.90
2018-01-12T17:58:41.156Z,2.90
2018-01-12T18:01:10.760Z,2.90
2018-01-12T18:03:40.392Z,2.90
2018-01-12T18:06:11.688Z,2.80
2018-01-12T18:08:41.405Z,2.80
2018-01-12T18:11:11.095Z,2.90
2018-01-12T18:13:40.693Z,2.90
2018-01-12T18:16:10.556Z,2.90
2018-01-12T18:18:40.252Z,2.90
2018-01-12T18:21:09.781Z,2.80
2018-01-12T18:23:39.342Z,2.80
2018-01-12T18:26:09.000Z,2.80
2018-01-12T18:28:38.585Z,2.80
2018-01-12T18:31:08.617Z,2.80
2018-01-12T18:33:38.247Z,2.80
2018-01-12T18:36:07.802Z,2.80
2018-01-12T18:38:37.724Z,2.80
2018-01-12T18:41:07.554Z,2.80
2018-01-12T18:43:37.387Z,2.80
2018-01-12T18:46:07.206Z,2.80
2018-01-12T18:48:37.770Z,2.80
2018-01-12T18:51:07.560Z,2.80
2018-01-12T18:53:37.157Z,2.80
2018-01-12T18:56:08.153Z,2.80
2018-01-12T18:58:37.819Z,2.80
2018-01-12T19:01:07.757Z,2.80
2018-01-12T19:03:37.699Z,2.80
2018-01-12T19:06:07.598Z,2.80
2018-01-12T19:08:37.647Z,2.80
2018-01-12T19:11:07.319Z,2.80
2018-01-12T19:13:36.902Z,2.80
2018-01-12T19:16:06.455Z,2.80
2018-01-12T19:18:37.215Z,2.80
2018-01-12T19:21:06.865Z,2.80
2018-01-12T19:23:36.640Z,2.80
2018-01-12T19:26:06.557Z,2.80
2018-01-12T19:28:36.123Z,2.80
2018-01-12T19:31:06.041Z,2.80
2018-01-12T19:33:35.814Z,2.70
2018-01-12T19:36:05.566Z,2.70
2018-01-12T19:38:35.774Z,2.70
2018-01-12T19:41:05.776Z,2.80
2018-01-12T19:43:35.541Z,2.70
2018-01-12T19:46:05.324Z,2.70
2018-01-12T19:48:35.127Z,2.80
2018-01-12T19:51:04.903Z,2.80
2018-01-12T19:53:34.731Z,2.80
2018-01-12T19:56:04.658Z,2.70
2018-01-12T19:58:34.608Z,2.70
2018-01-12T20:01:04.245Z,2.70
2018-01-12T20:03:33.863Z,2.70
2018-01-12T20:06:03.572Z,2.70
2018-01-12T20:08:33.390Z,2.70
2018-01-12T20:11:03.608Z,2.70
2018-01-12T20:13:33.563Z,2.70
2018-01-12T20:16:05.022Z,2.70
2018-01-12T20:18:35.025Z,2.70
2018-01-12T20:21:04.930Z,2.70
2018-01-12T20:23:35.253Z,2.70
2018-01-12T20:26:05.104Z,2.70
2018-01-12T20:28:35.814Z,2.70
2018-01-12T20:31:05.932Z,2.70
2018-01-12T20:33:35.948Z,2.70
2018-01-12T20:36:05.872Z,2.70
2018-01-12T20:38:35.499Z,2.70
2018-01-12T20:41:05.920Z,2.70
2018-01-12T20:43:36.643Z,2.70
2018-01-12T20:46:06.325Z,2.70
2018-01-12T20:48:37.384Z,2.70
2018-01-12T20:51:07.236Z,2.70
2018-01-12T20:53:36.872Z,2.70
2018-01-12T20:56:07.425Z,2.70
2018-01-12T20:58:37.275Z,2.70
2018-01-12T21:01:07.307Z,2.70
2018-01-12T21:03:37.485Z,2.60
2018-01-12T21:06:07.384Z,2.60
2018-01-12T21:08:37.177Z,2.60
2018-01-12T21:11:06.875Z,2.60
2018-01-12T21:13:36.437Z,2.60
2018-01-12T21:16:06.167Z,2.60
2018-01-12T21:18:35.829Z,2.60
2018-01-12T21:21:05.824Z,2.60
2018-01-12T21:23:35.536Z,2.60
2018-01-12T21:26:05.123Z,2.60
2018-01-12T21:28:34.930Z,2.60
2018-01-12T21:31:04.827Z,2.60
2018-01-12T21:33:34.706Z,2.60
2018-01-12T21:36:04.614Z,2.60
2018-01-12T21:38:34.601Z,2.80
2018-01-12T21:41:04.167Z,3.00
2018-01-12T21:43:33.961Z,3.20
2018-01-12T21:46:04.690Z,3.50
2018-01-12T21:48:34.654Z,3.50
2018-01-12T21:51:04.517Z,3.70
2018-01-12T21:53:34.504Z,3.80
2018-01-12T21:56:04.313Z,3.90
2018-01-12T21:58:34.228Z,3.90
2018-01-12T22:01:03.887Z,4.00
2018-01-12T22:03:34.090Z,4.00
2018-01-12T22:06:04.028Z,4.00
2018-01-12T22:08:34.029Z,4.00
2018-01-12T22:11:04.359Z,4.10
2018-01-12T22:13:34.210Z,4.10
2018-01-12T22:16:04.492Z,4.10
2018-01-12T22:18:34.621Z,4.10
2018-01-12T22:21:05.454Z,4.10
2018-01-12T22:23:35.461Z,4.10
2018-01-12T22:26:05.613Z,4.10
2018-01-12T22:28:35.472Z,4.20
2018-01-12T22:31:05.322Z,4.10
2018-01-12T22:33:35.343Z,4.20
2018-01-12T22:36:05.394Z,4.10
2018-01-12T22:38:35.456Z,4.10
2018-01-12T22:41:05.203Z,4.10
2018-01-12T22:43:35.619Z,4.10
2018-01-12T22:46:05.342Z,4.10
2018-01-12T22:48:35.093Z,4.10
2018-01-12T22:51:04.885Z,4.00
2018-01-12T22:53:34.540Z,4.00
2018-01-12T22:56:04.663Z,4.00
2018-01-12T22:58:34.591Z,4.00
2018-01-12T23:01:04.478Z,4.00
2018-01-12T23:03:34.517Z,4.00
2018-01-12T23:06:04.302Z,4.00
2018-01-12T23:08:34.916Z,4.00
2018-01-12T23:11:04.776Z,3.90
2018-01-12T23:13:34.504Z,4.00
2018-01-12T23:16:05.080Z,3.90
2018-01-12T23:18:34.732Z,3.90
2018-01-12T23:21:05.273Z,3.90
2018-01-12T23:23:39.389Z,3.90
2018-01-12T23:26:09.888Z,3.80
2018-01-12T23:28:39.911Z,3.80
2018-01-12T23:31:09.658Z,3.80
2018-01-12T23:33:39.238Z,3.80
2018-01-12T23:36:08.719Z,3.80
2018-01-12T23:38:38.496Z,3.80
2018-01-12T23:41:08.388Z,3.80
2018-01-12T23:43:38.020Z,3.80
2018-01-12T23:46:07.859Z,3.80
2018-01-12T23:48:37.493Z,3.80
2018-01-12T23:51:07.122Z,3.80
2018-01-12T23:53:36.836Z,3.80
2018-01-12T23:56:06.689Z,3.70
2018-01-12T23:58:36.502Z,3.70
